Time;durP1;ratioP1;P1;durP2;ratioP2;P2;SDS_P1;SDS_P2;PMS_P1;PMS_P2;Temp;Humidity;BMP_temperature;BMP_pressure;BME280_temperature;BME280_humidity;BME280_pressure;Samples;Min_cycle;Max_cycle;Signal;HPM_P1;HPM_P2
2021/06/19 00:02:19;;;;;;;3.92;2.67;;;;;;;20.09;67.90;100211.12;1730577;81;20949;-75
2021/06/19 00:04:45;;;;;;;3.85;1.95;;;;;;;20.11;67.99;100209.43;1707665;84;21533;-75
2021/06/19 00:07:11;;;;;;;4.00;2.33;;;;;;;20.12;67.72;100206.41;1717945;81;22186;-75
2021/06/19 00:09:38;;;;;;;5.25;2.55;;;;;;;20.12;67.80;100204.23;1759995;81;20952;-74
2021/06/19 00:12:06;;;;;;;2.90;2.52;;;;;;;20.12;67.74;100207.77;1686664;83;21066;-74
2021/06/19 00:14:33;;;;;;;2.60;2.27;;;;;;;20.13;67.76;100208.03;1683396;85;21032;-83
2021/06/19 00:17:00;;;;;;;2.50;1.98;;;;;;;20.06;68.23;100204.06;1714921;82;20980;-85
2021/06/19 00:19:27;;;;;;;3.45;2.08;;;;;;;19.95;68.77;100205.59;1726961;81;21967;-80
2021/06/19 00:21:53;;;;;;;3.83;2.40;;;;;;;19.86;69.18;100203.30;1725565;81;20987;-84
2021/06/19 00:24:21;;;;;;;3.67;2.70;;;;;;;19.80;69.43;100203.70;1682430;84;21019;-84
2021/06/19 00:26:48;;;;;;;2.25;2.00;;;;;;;19.72;69.76;100201.08;1686438;82;21074;-90
2021/06/19 00:29:15;;;;;;;3.30;1.98;;;;;;;19.68;70.02;100205.52;1712086;82;20999;-82
2021/06/19 00:31:43;;;;;;;2.22;1.40;;;;;;;19.65;69.94;100206.12;1734867;81;22175;-77
2021/06/19 00:34:09;;;;;;;4.12;1.60;;;;;;;19.69;69.86;100201.68;1724272;83;20976;-75
2021/06/19 00:36:36;;;;;;;3.30;1.82;;;;;;;19.63;70.19;100201.50;1745640;81;21249;-76
2021/06/19 00:39:04;;;;;;;5.78;1.50;;;;;;;19.55;70.46;100203.55;1714962;82;21082;-76
2021/06/19 00:41:31;;;;;;;2.30;1.92;;;;;;;19.49;70.82;100200.63;1706752;83;21149;-76
2021/06/19 00:43:57;;;;;;;1.82;1.50;;;;;;;19.44;71.00;100200.16;1730250;82;22183;-76
2021/06/19 00:46:24;;;;;;;2.95;2.15;;;;;;;19.40;71.21;100196.92;1710073;83;20987;-74
2021/06/19 00:48:51;;;;;;;2.50;1.80;;;;;;;19.37;71.30;100197.52;1709964;83;21472;-74
2021/06/19 00:51:17;;;;;;;2.22;1.80;;;;;;;19.35;71.51;100201.08;1680184;85;21054;-75
2021/06/19 00:53:45;;;;;;;2.05;1.80;;;;;;;19.30;71.71;100195.70;1681248;85;21500;-74
2021/06/19 00:56:11;;;;;;;5.17;1.62;;;;;;;19.28;71.77;100197.93;1681933;85;21103;-76
2021/06/19 00:58:38;;;;;;;4.08;1.52;;;;;;;19.26;71.83;100196.84;1681799;85;21555;-73
2021/06/19 01:01:05;;;;;;;2.17;1.70;;;;;;;19.27;71.64;100199.84;1681872;85;21035;-74
2021/06/19 01:03:32;;;;;;;1.90;1.65;;;;;;;19.29;71.66;100198.16;1682352;85;21034;-74
2021/06/19 01:05:58;;;;;;;6.67;1.72;;;;;;;19.24;71.87;100199.05;1682150;85;21053;-76
2021/06/19 01:08:27;;;;;;;2.92;1.57;;;;;;;19.21;72.01;100194.75;1665532;83;21736;-74
2021/06/19 01:10:55;;;;;;;8.55;2.47;;;;;;;19.21;71.86;100194.75;1706304;83;21652;-75
2021/06/19 01:13:21;;;;;;;1.82;1.70;;;;;;;19.18;71.88;100195.58;1731012;82;20897;-74
2021/06/19 01:15:49;;;;;;;4.85;1.98;;;;;;;19.17;72.04;100199.98;1730814;82;21071;-73
2021/06/19 01:18:16;;;;;;;3.27;2.02;;;;;;;19.15;72.07;100196.17;1705495;82;21651;-73
2021/06/19 01:20:42;;;;;;;2.55;1.85;;;;;;;19.18;72.02;100199.67;1695918;83;21084;-75
2021/06/19 01:23:08;;;;;;;4.72;1.80;;;;;;;19.16;72.02;100192.35;1708816;83;20959;-74
2021/06/19 01:25:37;;;;;;;2.42;2.00;;;;;;;19.15;72.23;100192.64;1688216;83;20991;-75
2021/06/19 01:28:10;;;;;;;1.90;1.72;;;;;;;19.14;72.09;100185.00;1709908;83;21030;-75
2021/06/19 01:30:32;;;;;;;4.45;1.52;;;;;;;19.18;72.03;100191.25;1698586;84;21036;-74
2021/06/19 01:32:58;;;;;;;2.95;1.85;;;;;;;19.21;71.93;100192.83;1710659;83;21563;-74
2021/06/19 01:35:25;;;;;;;3.77;2.00;;;;;;;19.24;71.73;100185.41;1677594;84;21548;-73
2021/06/19 01:37:55;;;;;;;1.95;1.85;;;;;;;19.25;71.64;100184.86;1754738;81;21010;-74
2021/06/19 01:40:25;;;;;;;7.92;2.27;;;;;;;19.24;71.74;100188.69;1708203;83;21603;-73
2021/06/19 01:42:52;;;;;;;1.80;1.32;;;;;;;19.21;71.79;100189.29;1711852;82;21034;-73
2021/06/19 01:45:28;;;;;;;2.77;1.65;;;;;;;19.21;71.85;100187.38;1702309;83;21098;-73
2021/06/19 01:47:57;;;;;;;5.03;1.47;;;;;;;19.20;71.81;100194.48;1685500;83;20990;-73
2021/06/19 01:50:24;;;;;;;4.33;1.67;;;;;;;19.20;71.78;100193.93;1653118;85;20987;-76
2021/06/19 01:52:51;;;;;;;1.85;1.70;;;;;;;19.23;71.70;100192.55;1683864;83;21031;-74
2021/06/19 01:55:17;;;;;;;3.37;1.70;;;;;;;19.21;71.68;100192.83;1692847;83;21027;-74
2021/06/19 01:57:45;;;;;;;2.72;1.90;;;;;;;19.20;71.74;100192.56;1709830;83;21098;-74
2021/06/19 02:00:17;;;;;;;1.30;1.20;;;;;;;19.17;71.84;100195.89;1683947;83;21515;-74
2021/06/19 02:02:44;;;;;;;3.58;1.87;;;;;;;19.20;71.80;100190.39;1712064;83;21018;-74
2021/06/19 02:05:13;;;;;;;4.45;1.98;;;;;;;19.21;71.67;100195.56;1704802;83;21114;-73
2021/06/19 02:07:54;;;;;;;4.50;1.50;;;;;;;19.23;71.64;100196.09;1711855;83;21353;-73
2021/06/19 02:10:28;;;;;;;4.30;1.72;;;;;;;19.23;71.64;100196.64;1711630;82;21008;-74
2021/06/19 02:12:55;;;;;;;3.12;2.50;;;;;;;19.20;71.76;100198.57;1711385;83;21007;-73
2021/06/19 02:15:24;;;;;;;2.87;1.40;;;;;;;19.19;71.77;100196.39;1679537;83;21007;-74
2021/06/19 02:17:50;;;;;;;10.65;2.00;;;;;;;19.22;71.67;100198.55;1711702;83;21515;-74
2021/06/19 02:20:18;;;;;;;1.98;1.60;;;;;;;19.21;71.72;100203.73;1685436;83;21038;-75
2021/06/19 02:22:44;;;;;;;2.20;1.95;;;;;;;19.20;71.71;100200.75;1657201;85;21598;-76
2021/06/19 02:25:14;;;;;;;1.92;1.80;;;;;;;19.22;71.69;100197.73;1712804;82;21556;-76
2021/06/19 02:27:55;;;;;;;5.42;1.87;;;;;;;19.22;71.63;100198.55;1737293;82;21039;-74
2021/06/19 02:30:28;;;;;;;2.12;1.50;;;;;;;19.23;71.62;100192.55;1674263;83;21024;-74
2021/06/19 02:32:55;;;;;;;6.85;1.80;;;;;;;19.26;71.63;100193.31;1713887;82;21691;-75
2021/06/19 02:35:24;;;;;;;4.47;1.98;;;;;;;19.22;71.76;100195.01;1724330;82;21110;-74
2021/06/19 02:37:51;;;;;;;4.25;2.08;;;;;;;19.15;72.06;100197.54;1656602;85;20967;-74
2021/06/19 02:40:17;;;;;;;3.22;1.87;;;;;;;19.14;72.09;100204.64;1685353;83;21031;-74
2021/06/19 02:42:44;;;;;;;2.67;1.75;;;;;;;19.17;72.10;100201.34;1658150;83;21571;-74
2021/06/19 02:45:12;;;;;;;1.90;1.70;;;;;;;19.19;72.07;100203.21;1736296;82;21085;-75
2021/06/19 02:47:47;;;;;;;3.90;1.90;;;;;;;19.17;72.22;100204.08;1712185;82;21118;-74
2021/06/19 02:50:15;;;;;;;1.72;1.62;;;;;;;19.14;72.30;100204.64;1711356;83;21030;-73
2021/06/19 02:52:42;;;;;;;7.90;1.90;;;;;;;19.14;72.28;100210.91;1763643;81;21034;-75
2021/06/19 02:55:11;;;;;;;4.20;1.80;;;;;;;19.16;72.21;100211.44;1725314;83;21008;-74
2021/06/19 02:57:38;;;;;;;5.67;3.05;;;;;;;19.16;72.26;100211.44;1707812;82;21038;-75
2021/06/19 03:00:06;;;;;;;6.53;3.12;;;;;;;19.16;72.26;100212.80;1714693;81;21772;-75
2021/06/19 03:02:32;;;;;;;2.08;1.57;;;;;;;19.21;72.15;100213.83;1741708;81;21055;-75
2021/06/19 03:04:59;;;;;;;2.77;2.17;;;;;;;19.24;72.20;100217.33;1727558;82;20951;-74
2021/06/19 03:07:26;;;;;;;2.85;2.00;;;;;;;19.27;72.06;100215.39;1734029;82;20987;-74
2021/06/19 03:09:53;;;;;;;2.62;1.52;;;;;;;19.31;71.96;100218.59;1737313;82;21099;-74
2021/06/19 03:12:19;;;;;;;7.70;2.12;;;;;;;19.33;71.81;100222.41;1712272;82;21082;-75
2021/06/19 03:14:45;;;;;;;2.17;1.75;;;;;;;19.34;71.78;100224.00;1732916;82;21527;-74
2021/06/19 03:17:12;;;;;;;3.27;1.52;;;;;;;19.38;71.72;100229.12;1733806;82;21156;-75
2021/06/19 03:19:39;;;;;;;2.22;1.60;;;;;;;19.41;71.67;100221.19;1756492;81;21591;-74
2021/06/19 03:22:05;;;;;;;4.78;1.60;;;;;;;19.48;71.42;100223.55;1767691;81;21067;-76
2021/06/19 03:24:40;;;;;;;2.33;2.00;;;;;;;19.52;71.17;100232.22;1719482;82;21074;-74
2021/06/19 03:27:12;;;;;;;5.25;2.10;;;;;;;19.56;71.13;100221.55;1730970;82;21045;-75
2021/06/19 03:29:40;;;;;;;2.87;2.33;;;;;;;19.59;70.98;100225.03;1720375;82;21042;-74
2021/06/19 03:32:07;;;;;;;14.85;3.40;;;;;;;19.65;70.90;100224.41;1691360;82;21579;-73
2021/06/19 03:34:34;;;;;;;6.65;3.60;;;;;;;19.70;70.79;100236.61;1714470;82;21078;-73
2021/06/19 03:37:01;;;;;;;3.55;2.50;;;;;;;19.73;70.68;100234.64;1712756;82;21031;-72
2021/06/19 03:39:28;;;;;;;2.70;2.15;;;;;;;19.77;70.66;100228.84;1756946;81;21543;-72
2021/06/19 03:41:55;;;;;;;1.98;1.67;;;;;;;19.80;70.61;100226.35;1750483;81;21063;-73
2021/06/19 03:44:23;;;;;;;17.48;2.45;;;;;;;19.85;70.50;100227.63;1726268;82;21584;-72
2021/06/19 03:46:50;;;;;;;2.15;1.90;;;;;;;19.85;70.57;100227.63;1722773;82;21031;-71
2021/06/19 03:49:16;;;;;;;5.75;3.10;;;;;;;19.90;70.53;100230.25;1668260;85;21757;-71
2021/06/19 03:51:43;;;;;;;11.78;2.37;;;;;;;19.92;70.64;100231.33;1717278;82;21031;-72
2021/06/19 03:54:10;;;;;;;4.53;3.05;;;;;;;19.97;70.46;100225.23;1694334;82;21068;-72
2021/06/19 03:56:36;;;;;;;6.65;3.10;;;;;;;20.03;70.38;100224.59;1688564;83;21495;-71
2021/06/19 03:59:02;;;;;;;13.35;2.75;;;;;;;20.10;70.28;100224.19;1699096;83;20943;-74
2021/06/19 04:01:29;;;;;;;6.72;2.42;;;;;;;20.17;70.23;100225.99;1683408;84;21056;-74
2021/06/19 04:03:56;;;;;;;4.55;1.80;;;;;;;20.25;70.06;100230.75;1705699;83;21046;-73
2021/06/19 04:06:23;;;;;;;4.03;2.02;;;;;;;20.29;69.85;100231.77;1717399;82;21596;-73
2021/06/19 04:08:49;;;;;;;10.75;2.52;;;;;;;20.34;69.73;100231.70;1696699;83;21036;-75
2021/06/19 04:11:16;;;;;;;10.72;2.27;;;;;;;20.37;69.59;100229.77;1668403;83;21116;-73
2021/06/19 04:13:42;;;;;;;5.67;2.30;;;;;;;20.38;69.46;100232.76;1715985;82;21032;-73
2021/06/19 04:16:09;;;;;;;9.25;3.40;;;;;;;20.40;69.51;100240.89;1698946;84;21543;-75
2021/06/19 04:18:38;;;;;;;7.78;4.42;;;;;;;20.40;69.59;100235.42;1671959;84;21100;-74
2021/06/19 04:21:07;;;;;;;6.65;2.42;;;;;;;20.40;69.74;100238.16;1687964;84;21040;-73
2021/06/19 04:23:33;;;;;;;3.52;2.15;;;;;;;20.43;69.62;100243.01;1688338;85;21080;-74
2021/06/19 04:26:01;;;;;;;4.33;2.25;;;;;;;20.49;69.19;100241.55;1668101;83;21855;-74
2021/06/19 04:28:29;;;;;;;4.00;2.20;;;;;;;20.51;69.20;100246.17;1702118;82;20945;-72
2021/06/19 04:30:59;;;;;;;3.72;2.00;;;;;;;20.54;69.07;100240.09;1721583;82;21019;-73
2021/06/19 04:33:24;;;;;;;8.28;2.17;;;;;;;20.60;69.09;100235.60;1697397;83;21017;-74
2021/06/19 04:35:51;;;;;;;7.35;3.17;;;;;;;20.63;69.00;100236.35;1690582;83;21006;-74
2021/06/19 04:38:17;;;;;;;9.75;3.05;;;;;;;20.64;69.03;100245.37;1698170;83;21126;-75
2021/06/19 04:40:57;;;;;;;3.40;2.20;;;;;;;20.63;69.13;100239.09;1684078;84;20968;-76
2021/06/19 04:43:26;;;;;;;2.10;1.90;;;;;;;20.66;69.18;100244.52;1652818;86;21573;-74
2021/06/19 04:45:49;;;;;;;5.65;2.67;;;;;;;20.70;68.98;100235.96;1653435;86;22239;-75
2021/06/19 04:48:16;;;;;;;3.87;2.20;;;;;;;20.75;68.97;100242.70;1641420;86;21092;-75
2021/06/19 04:50:43;;;;;;;9.85;2.40;;;;;;;20.79;69.05;100246.44;1632699;86;21182;-74
2021/06/19 04:53:11;;;;;;;6.40;2.77;;;;;;;20.83;68.93;100240.06;1702521;83;20972;-74
2021/06/19 04:55:38;;;;;;;3.35;2.10;;;;;;;20.90;68.90;100243.77;1675635;85;21101;-74
2021/06/19 04:58:05;;;;;;;10.90;1.82;;;;;;;21.01;68.49;100252.55;1666398;85;21047;-73
2021/06/19 05:00:32;;;;;;;4.00;2.17;;;;;;;21.05;68.27;100244.82;1661357;85;21066;-74
2021/06/19 05:02:59;;;;;;;5.33;2.10;;;;;;;21.11;68.23;100246.31;1657339;85;21584;-75
2021/06/19 05:05:28;;;;;;;4.12;2.62;;;;;;;21.16;68.03;100243.50;1681502;84;21137;-74
2021/06/19 05:07:54;;;;;;;6.42;3.52;;;;;;;21.20;67.80;100239.03;1647187;85;20962;-74
2021/06/19 05:10:21;;;;;;;9.78;3.27;;;;;;;21.19;68.09;100247.56;1659584;85;21527;-73
2021/06/19 05:12:47;;;;;;;8.25;4.45;;;;;;;21.16;68.32;100242.69;1678367;85;21103;-73
2021/06/19 05:15:26;;;;;;;7.40;3.60;;;;;;;21.17;68.38;100241.58;1654302;86;21496;-75
2021/06/19 05:17:54;;;;;;;3.65;2.40;;;;;;;21.22;68.24;100237.36;1631341;86;20998;-73
2021/06/19 05:20:20;;;;;;;6.80;2.17;;;;;;;21.25;68.35;100236.73;1654854;86;20989;-73
2021/06/19 05:22:48;;;;;;;6.33;2.98;;;;;;;21.33;67.57;100236.03;1655976;85;21094;-73
2021/06/19 05:25:14;;;;;;;5.78;4.12;;;;;;;21.43;67.85;100240.47;1656486;85;20965;-76
2021/06/19 05:27:42;;;;;;;11.55;3.45;;;;;;;21.49;67.59;100230.44;1632644;86;21775;-74
2021/06/19 05:30:11;;;;;;;7.17;2.90;;;;;;;21.63;67.16;100233.95;1655583;86;20919;-74
2021/06/19 05:32:37;;;;;;;5.20;2.80;;;;;;;21.63;67.16;100233.95;1655938;86;21637;-73
2021/06/19 05:35:04;;;;;;;10.53;3.60;;;;;;;21.71;66.68;100235.96;1655835;86;21559;-72
2021/06/19 05:37:30;;;;;;;6.50;3.42;;;;;;;21.81;66.52;100235.47;1650143;85;21516;-74
2021/06/19 05:39:57;;;;;;;3.98;3.12;;;;;;;21.88;66.41;100242.67;1655630;86;21013;-74
2021/06/19 05:42:23;;;;;;;3.17;2.52;;;;;;;21.94;65.69;100240.91;1663479;83;21567;-76
2021/06/19 05:44:50;;;;;;;6.33;3.98;;;;;;;21.95;65.97;100247.20;1632570;86;20967;-75
2021/06/19 05:47:17;;;;;;;8.55;2.90;;;;;;;21.98;65.92;100242.45;1697231;83;20954;-76
2021/06/19 05:49:44;;;;;;;11.53;3.42;;;;;;;22.03;65.97;100247.81;1683031;83;21057;-74
2021/06/19 05:52:10;;;;;;;3.27;2.70;;;;;;;22.02;66.52;100255.77;1682123;84;21590;-74
2021/06/19 05:54:37;;;;;;;12.03;2.55;;;;;;;22.01;66.58;100246.77;1637434;83;21053;-74
2021/06/19 05:57:07;;;;;;;5.25;3.05;;;;;;;22.06;66.83;100245.25;1672658;85;21016;-73
2021/06/19 05:59:35;;;;;;;3.58;2.15;;;;;;;22.18;66.29;100247.42;1697560;83;21049;-74
2021/06/19 06:02:03;;;;;;;8.03;3.40;;;;;;;22.27;64.87;100247.47;1697978;83;21197;-74
2021/06/19 06:04:32;;;;;;;4.92;2.50;;;;;;;22.37;64.86;100258.17;1718287;83;21160;-74
2021/06/19 06:06:59;;;;;;;4.08;2.87;;;;;;;22.40;64.69;100249.31;1697247;83;21057;-75
2021/06/19 06:09:26;;;;;;;4.58;2.52;;;;;;;22.48;64.64;100252.68;1719052;82;21105;-76
2021/06/19 06:11:52;;;;;;;4.22;2.80;;;;;;;22.59;63.79;100254.81;1682190;85;21061;-74
2021/06/19 06:14:19;;;;;;;2.98;2.47;;;;;;;22.67;63.76;100251.88;1705804;83;21092;-73
2021/06/19 06:16:46;;;;;;;5.05;1.92;;;;;;;22.68;63.73;100258.98;1697425;83;21905;-74
2021/06/19 06:19:14;;;;;;;6.55;3.35;;;;;;;22.74;63.79;100256.36;1716223;82;20925;-72
2021/06/19 06:21:41;;;;;;;7.12;2.85;;;;;;;22.82;63.74;100263.84;1682511;85;20977;-73
2021/06/19 06:24:09;;;;;;;8.00;2.92;;;;;;;22.88;63.96;100258.43;1682358;85;21953;-75
2021/06/19 06:26:35;;;;;;;9.35;3.55;;;;;;;22.92;63.09;100254.52;1701760;83;21015;-74
2021/06/19 06:29:02;;;;;;;9.08;4.08;;;;;;;22.98;62.98;100260.88;1667204;85;21216;-76
2021/06/19 06:31:29;;;;;;;15.10;6.03;;;;;;;23.01;62.73;100263.58;1731921;82;20944;-76
2021/06/19 06:33:56;;;;;;;8.33;3.95;;;;;;;23.07;62.81;100263.64;1727099;82;21047;-75
2021/06/19 06:36:23;;;;;;;14.53;4.08;;;;;;;23.15;62.74;100267.56;1748180;82;21083;-78
2021/06/19 06:38:51;;;;;;;5.65;2.40;;;;;;;23.19;62.80;100268.53;1748144;82;21041;-75
2021/06/19 06:41:17;;;;;;;6.97;3.27;;;;;;;23.26;62.57;100260.06;1752619;81;21164;-76
2021/06/19 06:43:44;;;;;;;11.80;2.90;;;;;;;23.35;62.62;100258.16;1734312;82;21017;-76
2021/06/19 06:46:11;;;;;;;3.22;2.15;;;;;;;23.44;62.49;100259.55;1710725;82;21034;-75
2021/06/19 06:48:37;;;;;;;3.85;2.52;;;;;;;23.50;62.29;100254.73;1709327;82;21588;-74
2021/06/19 06:51:04;;;;;;;3.77;2.75;;;;;;;23.60;61.81;100252.45;1682134;84;21054;-73
2021/06/19 06:53:31;;;;;;;5.00;3.00;;;;;;;23.62;61.82;100259.02;1636369;85;21220;-75
2021/06/19 06:55:57;;;;;;;6.28;2.90;;;;;;;23.58;62.28;100256.67;1711473;83;21549;-75
2021/06/19 06:58:24;;;;;;;10.20;3.17;;;;;;;23.62;62.26;100253.52;1711863;82;20963;-75
2021/06/19 07:00:50;;;;;;;16.32;3.50;;;;;;;23.69;61.62;100255.23;1685884;83;21531;-75
2021/06/19 07:03:16;;;;;;;6.35;3.40;;;;;;;23.78;61.50;100256.03;1729210;82;21026;-73
2021/06/19 07:05:43;;;;;;;4.95;2.62;;;;;;;23.80;61.32;100253.19;1677301;85;21062;-75
2021/06/19 07:08:10;;;;;;;10.48;3.20;;;;;;;23.75;61.31;100248.42;1658070;84;21603;-77
2021/06/19 07:10:38;;;;;;;9.70;3.50;;;;;;;23.72;61.54;100245.77;1697578;81;21090;-76
2021/06/19 07:13:04;;;;;;;4.15;2.72;;;;;;;23.79;61.34;100253.50;1724787;82;21536;-77
2021/06/19 07:15:31;;;;;;;4.20;2.47;;;;;;;23.89;61.37;100252.62;1735057;82;21035;-75
2021/06/19 07:17:58;;;;;;;16.50;3.77;;;;;;;24.00;61.48;100256.41;1709358;82;22097;-77
2021/06/19 07:20:24;;;;;;;4.62;2.92;;;;;;;24.11;60.71;100251.63;1657876;85;21051;-76
2021/06/19 07:22:50;;;;;;;8.50;3.58;;;;;;;24.21;60.55;100250.52;1683036;83;20999;-78
2021/06/19 07:25:17;;;;;;;10.78;3.80;;;;;;;24.26;58.78;100250.34;1704811;84;21058;-78
2021/06/19 07:27:46;;;;;;;12.40;4.30;;;;;;;24.32;59.35;100249.81;1705006;82;21025;-77
2021/06/19 07:30:14;;;;;;;10.38;3.25;;;;;;;24.40;59.26;100244.08;1731279;81;21068;-77
2021/06/19 07:32:40;;;;;;;10.10;3.22;;;;;;;24.52;58.77;100243.37;1741526;81;21057;-77
2021/06/19 07:35:08;;;;;;;12.45;2.72;;;;;;;24.61;57.33;100253.20;1745376;81;21084;-76
2021/06/19 07:37:35;;;;;;;2.42;2.10;;;;;;;24.69;57.18;100254.33;1726878;82;21081;-77
2021/06/19 07:40:01;;;;;;;9.55;2.52;;;;;;;24.74;56.87;100242.57;1737165;82;21027;-78
2021/06/19 07:42:28;;;;;;;7.17;2.52;;;;;;;24.82;57.17;100246.97;1721134;81;21077;-78
2021/06/19 07:44:54;;;;;;;8.30;2.37;;;;;;;24.90;57.22;100249.70;1718529;82;20980;-77
2021/06/19 07:47:21;;;;;;;11.55;3.33;;;;;;;24.98;57.36;100246.12;1703972;83;21145;-78
2021/06/19 07:49:47;;;;;;;6.62;2.30;;;;;;;25.10;57.68;100246.20;1736400;82;21077;-77
2021/06/19 07:52:14;;;;;;;3.60;3.08;;;;;;;25.23;57.27;100246.30;1670602;84;21671;-76
2021/06/19 07:54:40;;;;;;;6.35;2.60;;;;;;;25.31;56.80;100251.75;1704447;82;21128;-76
2021/06/19 07:57:07;;;;;;;5.37;2.67;;;;;;;25.38;56.86;100249.25;1716225;82;20898;-76
2021/06/19 07:59:34;;;;;;;5.97;2.83;;;;;;;25.47;57.40;100256.07;1693919;84;20910;-74
2021/06/19 08:02:01;;;;;;;4.70;2.20;;;;;;;25.54;56.65;100250.31;1711475;82;21003;-76
2021/06/19 08:04:29;;;;;;;11.25;3.40;;;;;;;25.62;56.67;100245.86;1673293;84;21032;-76
2021/06/19 08:06:57;;;;;;;11.10;2.50;;;;;;;25.71;56.73;100245.81;1700004;83;21110;-76
2021/06/19 08:09:24;;;;;;;5.08;2.95;;;;;;;25.79;56.43;100238.84;1709340;82;21533;-76
2021/06/19 08:11:51;;;;;;;9.60;2.67;;;;;;;25.89;56.38;100245.89;1750448;82;20972;-77
2021/06/19 08:14:19;;;;;;;11.35;3.25;;;;;;;25.96;55.55;100233.72;1711262;83;21031;-77
2021/06/19 08:16:50;;;;;;;12.58;3.98;;;;;;;25.99;55.22;100236.59;1720396;82;21062;-76
2021/06/19 08:19:16;;;;;;;11.80;2.30;;;;;;;26.07;55.55;100240.44;1701954;83;21834;-74
2021/06/19 08:21:42;;;;;;;18.37;2.60;;;;;;;26.16;55.41;100236.20;1704838;82;21505;-76
2021/06/19 08:24:08;;;;;;;6.20;2.42;;;;;;;26.27;55.24;100230.53;1692741;82;21031;-76
2021/06/19 08:26:36;;;;;;;11.85;3.05;;;;;;;26.40;55.01;100241.23;1723974;82;21024;-75
2021/06/19 08:29:06;;;;;;;8.90;2.72;;;;;;;26.46;54.11;100228.03;1671665;83;20960;-78
2021/06/19 08:31:38;;;;;;;8.48;3.02;;;;;;;26.51;53.97;100232.52;1748577;82;21857;-79
2021/06/19 08:34:07;;;;;;;8.90;2.27;;;;;;;26.58;53.70;100227.23;1728599;82;21069;-83
2021/06/19 08:36:33;;;;;;;8.08;2.83;;;;;;;26.62;53.65;100228.95;1675614;84;20979;-80
2021/06/19 08:39:01;;;;;;;14.83;3.35;;;;;;;26.68;53.97;100223.45;1722215;82;21017;-79
2021/06/19 08:41:27;;;;;;;6.45;3.02;;;;;;;26.62;52.78;100219.90;1722516;81;21314;-76
2021/06/19 08:43:54;;;;;;;6.85;3.42;;;;;;;26.47;53.47;100213.10;1718934;82;21193;-79
2021/06/19 08:46:22;;;;;;;7.55;3.05;;;;;;;26.45;54.31;100218.14;1683726;84;20968;-78
2021/06/19 08:48:52;;;;;;;6.20;2.83;;;;;;;26.52;54.42;100216.20;1689654;83;21695;-78
2021/06/19 08:51:23;;;;;;;13.10;4.25;;;;;;;26.64;54.58;100211.49;1714189;82;20984;-81
2021/06/19 08:53:50;;;;;;;6.00;3.15;;;;;;;26.77;54.37;100207.58;1740195;82;21059;-71
2021/06/19 08:56:18;;;;;;;10.13;3.05;;;;;;;26.91;53.33;100205.87;1682567;85;21240;-76
2021/06/19 08:58:47;;;;;;;7.47;2.58;;;;;;;27.02;52.94;100208.97;1731270;82;21524;-77
2021/06/19 09:01:14;;;;;;;7.72;3.60;;;;;;;27.10;52.83;100208.06;1692376;82;21057;-83
2021/06/19 09:03:41;;;;;;;2.70;2.47;;;;;;;27.13;52.65;100201.83;1697942;83;21069;-83
2021/06/19 09:06:27;;;;;;;5.65;2.65;;;;;;;27.17;51.52;100198.59;1697469;83;21100;-78
2021/06/19 09:09:06;;;;;;;13.65;2.95;;;;;;;27.16;52.07;100202.50;1729782;82;20978;-78
2021/06/19 09:11:36;;;;;;;7.80;2.47;;;;;;;27.22;51.77;100204.69;1694847;84;21003;-82
2021/06/19 09:14:06;;;;;;;14.78;4.50;;;;;;;27.34;51.81;100203.27;1719914;82;21506;-88
2021/06/19 09:16:37;;;;;;;20.00;3.72;;;;;;;27.44;51.10;100204.73;1683409;82;20967;-86
2021/06/19 09:19:07;;;;;;;11.68;2.90;;;;;;;27.47;50.75;100203.24;1736233;81;20953;-82
2021/06/19 09:21:36;;;;;;;3.80;2.90;;;;;;;27.54;50.23;100200.70;1706643;82;22138;-87
2021/06/19 09:24:02;;;;;;;13.35;3.22;;;;;;;27.51;50.13;100193.13;1701357;83;20989;-79
2021/06/19 09:26:35;;;;;;;13.68;3.67;;;;;;;27.48;49.87;100193.20;1701448;84;20975;-81
2021/06/19 09:29:17;;;;;;;10.10;3.08;;;;;;;27.47;50.43;100188.05;1707028;82;21053;-75
2021/06/19 09:31:48;;;;;;;4.55;2.35;;;;;;;27.53;50.11;100191.61;1707557;82;21027;-75
2021/06/19 09:34:27;;;;;;;8.93;2.85;;;;;;;27.57;50.99;100190.34;1714868;82;21150;-76
2021/06/19 09:37:03;;;;;;;5.30;2.00;;;;;;;27.69;49.18;100185.56;1717472;83;22145;-76
2021/06/19 09:39:30;;;;;;;6.85;2.20;;;;;;;27.85;48.50;100182.05;1716094;82;21626;-79
2021/06/19 09:42:00;;;;;;;9.70;3.12;;;;;;;28.03;48.12;100187.47;1717218;81;21206;-78
2021/06/19 09:44:45;;;;;;;19.90;2.90;;;;;;;28.17;47.15;100167.93;1702829;83;21156;-82
2021/06/19 09:47:21;;;;;;;9.93;2.70;;;;;;;28.28;47.07;100183.43;1702089;84;21155;-82
2021/06/19 09:49:48;;;;;;;7.08;2.17;;;;;;;28.37;46.96;100181.28;1689706;84;21020;-84
2021/06/19 09:52:14;;;;;;;10.75;2.80;;;;;;;28.44;48.08;100170.98;1683258;83;21083;-81
2021/06/19 09:54:43;;;;;;;9.40;2.52;;;;;;;28.45;48.50;100170.61;1684993;84;21054;-78
2021/06/19 09:57:14;;;;;;;13.20;3.02;;;;;;;28.52;48.23;100163.88;1687951;84;21644;-79
2021/06/19 09:59:42;;;;;;;24.15;2.85;;;;;;;28.61;46.53;100178.33;1687824;84;21347;-77
2021/06/19 10:02:27;;;;;;;6.15;1.70;;;;;;;28.68;44.46;100170.76;1669467;84;21155;-77
2021/06/19 10:04:56;;;;;;;11.10;2.35;;;;;;;28.67;44.48;100172.52;1674684;84;21144;-76
2021/06/19 10:07:24;;;;;;;5.30;2.02;;;;;;;28.65;44.00;100173.45;1674344;85;21551;-77
2021/06/19 10:09:53;;;;;;;19.73;2.92;;;;;;;28.73;44.84;100164.98;1694053;84;21008;-77
2021/06/19 10:12:32;;;;;;;7.58;2.62;;;;;;;28.87;44.19;100153.45;1700595;84;21092;-77
2021/06/19 10:15:06;;;;;;;15.38;2.67;;;;;;;29.00;43.58;100156.31;1661768;85;21042;-76
2021/06/19 10:17:40;;;;;;;10.23;2.50;;;;;;;29.08;43.60;100157.27;1678602;84;21071;-79
2021/06/19 10:20:10;;;;;;;3.33;1.80;;;;;;;29.14;43.94;100156.63;1674333;85;21115;-77
2021/06/19 10:22:38;;;;;;;10.03;2.12;;;;;;;29.25;43.83;100155.47;1674267;85;21091;-79
2021/06/19 10:25:08;;;;;;;6.70;2.00;;;;;;;29.18;43.96;100148.38;1653293;85;21130;-78
2021/06/19 10:27:37;;;;;;;16.65;4.03;;;;;;;29.14;44.51;100146.13;1685402;84;20944;-85
2021/06/19 10:30:05;;;;;;;10.00;1.98;;;;;;;29.17;44.56;100139.84;1703318;83;20967;-83
2021/06/19 10:32:47;;;;;;;8.58;2.22;;;;;;;29.22;44.30;100157.56;1702862;84;21054;-85
2021/06/19 10:35:18;;;;;;;22.63;2.33;;;;;;;29.31;42.74;100142.36;1659066;85;20994;-81
2021/06/19 10:37:46;;;;;;;7.30;1.85;;;;;;;29.37;42.21;100153.38;1623291;86;21275;-74
2021/06/19 10:40:28;;;;;;;16.97;2.67;;;;;;;29.43;42.27;100145.00;1672872;85;21715;-77
2021/06/19 10:43:18;;;;;;;3.47;1.60;;;;;;;29.48;42.47;100145.87;1660190;84;20952;-75
2021/06/19 10:45:46;;;;;;;17.50;3.17;;;;;;;29.48;41.95;100145.87;1673162;84;21005;-78
2021/06/19 10:48:19;;;;;;;11.10;2.20;;;;;;;29.45;40.84;100143.23;1657444;85;21083;-80
2021/06/19 10:50:49;;;;;;;9.78;1.90;;;;;;;29.41;40.77;100131.27;1658651;85;21946;-80
2021/06/19 10:53:19;;;;;;;11.20;1.72;;;;;;;29.40;40.84;100133.23;1680418;85;20952;-84
2021/06/19 10:55:55;;;;;;;6.80;2.42;;;;;;;29.45;40.95;100132.14;1675311;85;21508;-82
2021/06/19 10:58:29;;;;;;;11.50;3.65;;;;;;;29.58;41.22;100135.00;1675941;84;21050;-76
2021/06/19 11:01:02;;;;;;;6.83;2.42;;;;;;;29.72;41.40;100133.89;1698560;84;21548;-77
2021/06/19 11:03:51;;;;;;;12.43;2.25;;;;;;;29.89;41.33;100132.63;1698317;84;21080;-78
2021/06/19 11:06:28;;;;;;;8.55;2.15;;;;;;;29.96;41.46;100145.84;1697479;84;21051;-79
2021/06/19 11:09:16;;;;;;;3.62;1.80;;;;;;;29.95;40.96;100139.48;1689700;84;21028;-75
2021/06/19 11:12:02;;;;;;;9.48;2.58;;;;;;;29.95;40.56;100147.00;1668982;86;21108;-73
2021/06/19 11:14:47;;;;;;;3.05;1.40;;;;;;;29.95;40.66;100137.29;1683472;85;21079;-73
2021/06/19 11:17:25;;;;;;;5.12;2.15;;;;;;;30.05;41.01;100139.45;1683371;84;21194;-73
2021/06/19 11:19:57;;;;;;;10.30;2.45;;;;;;;30.21;40.74;100137.37;1683213;85;21071;-73
2021/06/19 11:22:38;;;;;;;8.13;1.80;;;;;;;30.32;40.36;100130.80;1675253;85;21010;-73
2021/06/19 11:26:01;;;;;;;8.28;2.17;;;;;;;30.47;39.44;100140.78;1655340;86;21119;-74
2021/06/19 11:28:26;;;;;;;12.23;2.37;;;;;;;30.52;39.50;100134.91;1676083;84;21023;-73
2021/06/19 11:31:01;;;;;;;13.25;2.37;;;;;;;30.52;39.56;100137.69;1649514;86;21158;-77
2021/06/19 11:33:31;;;;;;;15.10;2.70;;;;;;;30.52;39.41;100135.72;1621028;87;21568;-79